Time;durP1;ratioP1;P1;durP2;ratioP2;P2;SDS_P1;SDS_P2;PMS_P1;PMS_P2;Temp;Humidity;BMP_temperature;BMP_pressure;BME280_temperature;BME280_humidity;BME280_pressure;Samples;Min_cycle;Max_cycle;Signal;HPM_P1;HPM_P2
2023/03/20 00:01:20;;;;;;;26.05;17.02;;;;;;;12.45;49.54;100414.28;5004432;28;20072;-69
2023/03/20 00:03:46;;;;;;;27.80;16.42;;;;;;;12.42;49.15;100410.06;5002786;28;20091;-69
2023/03/20 00:06:16;;;;;;;27.52;17.45;;;;;;;12.47;49.63;100413.13;5008260;28;20037;-69
2023/03/20 00:08:46;;;;;;;28.77;16.88;;;;;;;12.42;49.62;100403.81;5021005;28;20037;-69
2023/03/20 00:11:29;;;;;;;24.75;16.35;;;;;;;12.40;49.85;100408.47;4993918;28;20057;-69
2023/03/20 00:14:14;;;;;;;30.08;18.35;;;;;;;12.40;50.39;100408.47;5022315;28;20445;-69
2023/03/20 00:16:43;;;;;;;23.90;16.58;;;;;;;12.37;50.56;100401.56;5004635;28;20120;-69
2023/03/20 00:19:30;;;;;;;28.08;17.52;;;;;;;12.35;50.40;100394.63;4999506;28;20461;-68
2023/03/20 00:21:56;;;;;;;28.92;17.80;;;;;;;12.36;51.00;100396.31;5005223;28;20396;-69
2023/03/20 00:24:22;;;;;;;26.92;17.45;;;;;;;12.35;51.29;100389.25;4994292;28;20394;-69
2023/03/20 00:26:50;;;;;;;23.45;16.55;;;;;;;12.34;51.26;100382.16;4993456;28;20033;-69
2023/03/20 00:29:22;;;;;;;24.52;16.38;;;;;;;12.33;50.96;100380.47;5005725;28;20026;-68
2023/03/20 00:31:48;;;;;;;28.77;18.42;;;;;;;12.24;51.27;100371.41;5002430;28;20129;-68
2023/03/20 00:34:16;;;;;;;27.65;17.35;;;;;;;12.31;51.41;100382.44;5015280;28;20207;-69
2023/03/20 00:36:42;;;;;;;31.30;18.80;;;;;;;12.23;51.40;100369.75;5002886;28;20038;-69
2023/03/20 00:39:07;;;;;;;26.98;17.83;;;;;;;12.31;51.66;100391.38;5002152;28;20368;-69
2023/03/20 00:42:01;;;;;;;25.02;18.20;;;;;;;12.28;51.47;100385.44;5000430;28;20037;-63
2023/03/20 00:44:58;;;;;;;26.48;17.90;;;;;;;12.24;51.58;100386.69;4995337;28;20022;-63
2023/03/20 00:47:24;;;;;;;25.08;16.73;;;;;;;12.22;52.24;100388.69;5006215;28;20030;-64
2023/03/20 00:49:53;;;;;;;29.30;16.67;;;;;;;12.22;52.00;100388.69;5006735;28;20053;-63
2023/03/20 00:52:19;;;;;;;26.52;17.30;;;;;;;12.18;52.28;100380.06;5002197;28;20038;-64
2023/03/20 00:54:45;;;;;;;28.60;17.17;;;;;;;12.15;52.52;100380.34;5007736;28;20034;-65
2023/03/20 00:57:16;;;;;;;23.88;16.77;;;;;;;12.16;52.46;100390.09;5007301;28;20503;-63
2023/03/20 00:59:48;;;;;;;24.85;17.17;;;;;;;12.18;52.64;100376.50;5002328;28;20025;-63
2023/03/20 01:02:15;;;;;;;28.58;17.42;;;;;;;12.16;52.60;100376.66;5002655;28;20498;-65
2023/03/20 01:04:41;;;;;;;24.73;16.38;;;;;;;12.14;52.73;100381.34;4998051;28;20037;-63
2023/03/20 01:07:12;;;;;;;23.63;17.15;;;;;;;12.15;53.34;100376.81;4990224;28;20062;-64
2023/03/20 01:09:37;;;;;;;25.23;16.38;;;;;;;12.16;53.00;100386.59;5005443;28;20026;-64
2023/03/20 01:12:04;;;;;;;24.85;15.93;;;;;;;12.13;53.71;100376.09;5002790;28;20048;-64
2023/03/20 01:14:30;;;;;;;24.20;16.15;;;;;;;12.06;53.41;100366.91;5020196;28;20031;-64
2023/03/20 01:16:55;;;;;;;24.98;15.73;;;;;;;12.12;53.48;100377.09;4997282;28;20087;-64
2023/03/20 01:19:21;;;;;;;25.13;16.25;;;;;;;12.13;53.80;100370.72;5005234;28;20138;-63
2023/03/20 01:21:46;;;;;;;22.88;15.25;;;;;;;12.14;53.38;100375.09;5005958;28;20038;-63
2023/03/20 01:24:12;;;;;;;23.15;15.48;;;;;;;12.10;53.17;100363.81;4993954;28;20022;-63
2023/03/20 01:26:41;;;;;;;21.13;15.20;;;;;;;12.14;53.32;100372.41;5015192;28;20058;-63
2023/03/20 01:29:20;;;;;;;22.35;14.48;;;;;;;12.05;53.08;100355.31;5017494;28;20057;-63
2023/03/20 01:31:46;;;;;;;22.73;14.05;;;;;;;12.16;53.44;100373.13;5006282;28;20463;-63
2023/03/20 01:34:12;;;;;;;23.95;15.02;;;;;;;12.15;53.13;100372.28;5010326;28;20045;-63
2023/03/20 01:36:38;;;;;;;24.80;13.98;;;;;;;12.09;52.89;100361.25;5023059;28;20044;-63
2023/03/20 01:39:04;;;;;;;21.38;13.98;;;;;;;12.08;52.73;100360.41;5007827;28;20022;-63
2023/03/20 01:41:31;;;;;;;19.63;12.70;;;;;;;12.19;52.63;100371.00;5023973;28;20036;-64
2023/03/20 01:44:00;;;;;;;18.38;12.88;;;;;;;12.22;52.25;100375.25;5024233;28;21814;-63
2023/03/20 01:46:29;;;;;;;18.88;12.90;;;;;;;12.24;52.32;100374.13;5025299;28;20057;-63
2023/03/20 01:49:27;;;;;;;20.08;13.52;;;;;;;12.27;52.38;100375.66;5015277;28;20025;-63
2023/03/20 01:51:55;;;;;;;20.88;13.35;;;;;;;12.28;52.70;100383.59;5021760;28;20395;-64
2023/03/20 01:54:27;;;;;;;19.05;12.70;;;;;;;12.29;52.87;100379.88;5018945;28;20814;-63
2023/03/20 01:57:02;;;;;;;19.10;13.00;;;;;;;12.31;52.42;100371.69;5016118;28;20029;-63
2023/03/20 01:59:40;;;;;;;21.02;13.77;;;;;;;12.22;52.28;100361.81;5018656;28;20631;-62
2023/03/20 02:02:07;;;;;;;19.40;13.00;;;;;;;12.32;52.12;100381.47;5011239;28;20083;-63
2023/03/20 02:04:40;;;;;;;22.17;13.20;;;;;;;12.33;53.08;100375.09;5017884;28;20064;-63
2023/03/20 02:07:07;;;;;;;18.88;13.40;;;;;;;12.29;53.17;100369.13;5024605;28;20060;-63
2023/03/20 02:09:32;;;;;;;21.42;13.23;;;;;;;12.31;53.00;100371.69;5016568;28;20075;-63
2023/03/20 02:11:59;;;;;;;20.20;14.05;;;;;;;12.25;53.14;100366.91;5023974;28;20029;-64
2023/03/20 02:14:34;;;;;;;20.63;14.32;;;;;;;12.31;53.71;100369.00;5074480;28;20732;-62
2023/03/20 02:17:09;;;;;;;19.20;13.15;;;;;;;12.23;53.79;100366.19;5079205;28;20050;-63
2023/03/20 02:19:43;;;;;;;22.23;13.52;;;;;;;12.28;54.30;100378.19;5081369;28;20039;-63
2023/03/20 02:22:09;;;;;;;;;;;;;;;12.25;54.42;100364.22;5081021;28;20039;-63
2023/03/20 02:25:01;;;;;;;21.08;13.20;;;;;;;12.24;53.47;100362.50;5064669;28;20011;-63
2023/03/20 02:27:44;;;;;;;21.38;13.15;;;;;;;12.25;53.62;100372.28;5063081;28;20033;-62
2023/03/20 02:30:37;;;;;;;19.17;12.40;;;;;;;12.23;54.15;100366.19;5071739;28;20796;-62
2023/03/20 02:33:21;;;;;;;19.48;13.13;;;;;;;12.21;54.27;100365.47;5075389;28;20032;-63
2023/03/20 02:36:13;;;;;;;20.48;13.15;;;;;;;12.20;54.28;100361.09;5067319;28;20033;-68
2023/03/20 02:39:02;;;;;;;20.70;13.55;;;;;;;12.21;55.00;100363.63;5060822;28;20109;-68
2023/03/20 02:41:51;;;;;;;17.75;12.00;;;;;;;12.19;54.79;100367.47;5060017;28;20029;-68
2023/03/20 02:44:39;;;;;;;18.65;12.77;;;;;;;12.19;54.72;100373.69;5041380;28;20033;-69
2023/03/20 02:47:15;;;;;;;19.35;12.85;;;;;;;12.22;54.69;100367.19;5065240;28;20032;-68
2023/03/20 02:49:52;;;;;;;17.02;11.88;;;;;;;12.20;54.61;100361.09;5068424;28;20485;-68
2023/03/20 02:52:57;;;;;;;19.02;12.20;;;;;;;12.20;54.70;100358.41;5067306;28;20033;-68
2023/03/20 02:55:30;;;;;;;17.65;11.68;;;;;;;12.21;54.63;100362.78;5062892;28;20044;-68
2023/03/20 02:58:19;;;;;;;21.52;11.95;;;;;;;12.20;54.35;100356.56;5071332;28;20174;-68
2023/03/20 03:00:49;;;;;;;19.27;11.27;;;;;;;12.20;54.84;100353.03;5067320;28;20028;-69
2023/03/20 03:03:30;;;;;;;17.15;10.48;;;;;;;12.17;55.19;100348.78;5061666;28;20040;-68
2023/03/20 03:06:05;;;;;;;16.50;10.80;;;;;;;12.21;54.95;100357.41;5062507;28;20494;-68
2023/03/20 03:08:37;;;;;;;17.90;11.38;;;;;;;12.23;55.86;100350.06;5061077;28;20032;-68
2023/03/20 03:11:08;;;;;;;16.42;10.88;;;;;;;12.20;55.46;100347.66;5058448;28;20032;-63
2023/03/20 03:13:43;;;;;;;16.23;10.27;;;;;;;12.20;55.46;100347.66;5056584;28;20337;-63
2023/03/20 03:16:18;;;;;;;17.83;10.90;;;;;;;12.16;55.78;100347.06;5057643;28;20041;-63
2023/03/20 03:18:45;;;;;;;15.52;10.45;;;;;;;12.24;56.32;100347.22;5059666;28;20028;-62
2023/03/20 03:21:15;;;;;;;16.80;11.63;;;;;;;12.23;56.44;100340.16;5060797;28;20033;-62
2023/03/20 03:23:45;;;;;;;14.85;10.00;;;;;;;12.22;56.72;100341.13;5055592;28;20025;-62
2023/03/20 03:26:37;;;;;;;17.27;10.80;;;;;;;12.19;56.85;100340.59;5044318;28;20032;-63
2023/03/20 03:29:11;;;;;;;15.95;9.98;;;;;;;12.15;57.20;100336.50;5042768;28;20039;-63
2023/03/20 03:31:37;;;;;;;14.48;10.05;;;;;;;12.19;57.08;100346.78;5045447;28;20029;-63
2023/03/20 03:34:03;;;;;;;13.45;9.32;;;;;;;12.17;57.47;100337.19;5047723;28;20094;-63
2023/03/20 03:36:49;;;;;;;13.95;9.23;;;;;;;12.18;57.66;100346.94;5044278;28;20124;-62
2023/03/20 03:39:36;;;;;;;13.98;9.35;;;;;;;12.15;57.73;100345.38;5043551;28;20052;-63
2023/03/20 03:42:23;;;;;;;14.00;9.13;;;;;;;12.16;57.85;100348.94;5045244;28;20017;-63
2023/03/20 03:44:58;;;;;;;13.63;8.68;;;;;;;12.12;58.56;100351.06;5045596;28;20033;-62
2023/03/20 03:47:31;;;;;;;13.02;8.18;;;;;;;12.07;58.66;100344.41;5046428;28;20131;-62
2023/03/20 03:50:18;;;;;;;13.70;8.20;;;;;;;12.11;59.07;100349.38;5042469;28;20113;-64
2023/03/20 03:52:45;;;;;;;13.82;8.63;;;;;;;12.07;59.52;100347.97;5046749;28;20052;-62
2023/03/20 03:55:18;;;;;;;14.27;8.73;;;;;;;12.06;59.60;100351.63;5048383;28;20041;-62
2023/03/20 03:58:05;;;;;;;11.27;8.63;;;;;;;12.04;59.38;100352.75;5046755;28;20025;-63
2023/03/20 04:00:33;;;;;;;10.23;7.50;;;;;;;12.00;60.38;100354.91;5045644;28;20028;-63
2023/03/20 04:02:58;;;;;;;10.43;7.88;;;;;;;12.01;60.29;100361.09;5045119;28;20474;-63
2023/03/20 04:05:30;;;;;;;12.35;7.07;;;;;;;11.90;60.14;100339.78;5046476;28;20047;-63
2023/03/20 04:07:58;;;;;;;11.05;7.30;;;;;;;11.95;61.37;100364.38;5049459;28;20060;-62
2023/03/20 04:10:24;;;;;;;11.18;7.10;;;;;;;11.94;61.44;100355.47;5058977;28;20040;-63
2023/03/20 04:12:50;;;;;;;11.45;6.93;;;;;;;11.93;61.66;100359.13;5054862;28;20491;-63
2023/03/20 04:15:16;;;;;;;11.80;6.80;;;;;;;11.90;61.34;100355.91;5066310;28;20103;-63
2023/03/20 04:17:42;;;;;;;10.20;6.65;;;;;;;11.85;61.45;100355.47;5053927;28;20506;-64
2023/03/20 04:20:09;;;;;;;9.73;6.75;;;;;;;11.88;62.02;100360.56;5048866;28;20020;-68
2023/03/20 04:22:34;;;;;;;8.38;6.40;;;;;;;11.81;62.65;100354.06;5045572;28;20021;-69
2023/03/20 04:25:02;;;;;;;13.32;7.13;;;;;;;11.83;62.60;100360.97;5048468;28;20092;-63
2023/03/20 04:27:27;;;;;;;9.55;6.68;;;;;;;11.83;63.08;100360.16;5044833;28;20098;-63
2023/03/20 04:29:53;;;;;;;9.20;6.18;;;;;;;11.83;62.73;100357.47;5057684;28;20032;-63
2023/03/20 04:32:19;;;;;;;9.57;6.15;;;;;;;11.82;63.06;100371.88;5062754;28;20109;-63
2023/03/20 04:34:44;;;;;;;9.23;6.32;;;;;;;11.79;63.00;100366.78;5056844;28;20025;-63
2023/03/20 04:37:10;;;;;;;9.25;6.53;;;;;;;11.73;63.74;100359.31;5044541;28;20039;-63
2023/03/20 04:39:36;;;;;;;11.10;6.53;;;;;;;11.72;63.55;100355.75;5043532;28;20033;-63
2023/03/20 04:42:03;;;;;;;10.35;6.60;;;;;;;11.67;64.17;100362.53;5053532;28;20021;-63
2023/03/20 04:44:29;;;;;;;11.18;6.60;;;;;;;11.69;64.20;100363.22;5052828;28;20042;-63
2023/03/20 04:46:54;;;;;;;10.48;6.47;;;;;;;11.69;64.17;100373.97;5057658;28;20546;-63
2023/03/20 04:49:20;;;;;;;9.75;6.72;;;;;;;11.67;64.02;100370.59;5050266;28;20056;-63
2023/03/20 04:51:45;;;;;;;9.13;6.35;;;;;;;11.63;64.27;100370.03;5047595;28;20028;-63
2023/03/20 04:54:11;;;;;;;12.05;6.65;;;;;;;11.54;64.85;100365.44;5052963;28;20021;-62
2023/03/20 04:56:36;;;;;;;7.53;6.07;;;;;;;11.55;65.18;100377.91;5048894;28;20566;-63
2023/03/20 04:59:02;;;;;;;8.43;5.97;;;;;;;11.50;65.39;100385.53;5044294;28;20025;-63
2023/03/20 05:01:27;;;;;;;10.02;6.43;;;;;;;11.46;65.88;100384.97;5046390;28;20090;-64
2023/03/20 05:03:59;;;;;;;11.68;7.80;;;;;;;11.42;66.07;100394.28;5059637;28;20013;-63
2023/03/20 05:06:25;;;;;;;10.43;7.18;;;;;;;11.40;66.28;100388.22;5044406;28;20048;-63
2023/03/20 05:08:51;;;;;;;11.90;7.45;;;;;;;11.39;66.74;100389.16;5045794;28;20560;-63
2023/03/20 05:11:16;;;;;;;12.73;6.93;;;;;;;11.38;66.54;100386.63;5045373;28;20112;-63
2023/03/20 05:13:41;;;;;;;9.77;6.35;;;;;;;11.37;66.94;100385.78;5051199;28;20044;-64
2023/03/20 05:16:08;;;;;;;9.57;6.00;;;;;;;11.37;67.19;100393.00;5044964;28;20032;-63
2023/03/20 05:18:33;;;;;;;8.32;6.35;;;;;;;11.36;67.05;100388.63;5043223;28;20158;-63
2023/03/20 05:21:00;;;;;;;10.30;5.93;;;;;;;11.38;67.46;100406.28;5046430;28;20471;-63
2023/03/20 05:23:25;;;;;;;9.07;5.78;;;;;;;11.33;67.58;100392.44;5048858;28;20060;-64
2023/03/20 05:25:51;;;;;;;13.32;6.22;;;;;;;11.39;67.41;100407.13;5044879;28;20072;-64
2023/03/20 05:28:16;;;;;;;8.23;5.82;;;;;;;11.32;67.62;100392.56;5047867;28;20078;-64
2023/03/20 05:30:42;;;;;;;11.43;5.93;;;;;;;11.38;67.74;100403.59;5043632;28;20063;-63
2023/03/20 05:33:07;;;;;;;10.18;6.05;;;;;;;11.42;68.05;100398.81;5044472;28;20075;-63
2023/03/20 05:35:35;;;;;;;8.63;5.55;;;;;;;11.38;67.79;100400.91;5048140;28;20048;-69
2023/03/20 05:38:00;;;;;;;17.02;8.48;;;;;;;11.39;68.18;100399.91;5040547;28;20110;-69
2023/03/20 05:40:26;;;;;;;13.48;7.72;;;;;;;11.41;68.24;100400.63;5048389;28;20032;-69
2023/03/20 05:42:51;;;;;;;14.77;8.20;;;;;;;11.36;68.24;100391.31;5046965;28;20060;-69
2023/03/20 05:45:17;;;;;;;10.65;7.25;;;;;;;11.40;68.07;100401.63;5046760;28;20426;-69
2023/03/20 05:47:43;;;;;;;10.60;6.68;;;;;;;11.49;68.15;100408.84;5049102;28;20098;-69
2023/03/20 05:50:10;;;;;;;12.93;6.60;;;;;;;11.49;68.68;100406.16;5046509;28;20024;-68
2023/03/20 05:52:35;;;;;;;14.80;7.82;;;;;;;11.52;68.60;100407.72;5054485;28;20730;-69
2023/03/20 05:55:01;;;;;;;13.93;7.82;;;;;;;11.49;68.49;100406.16;5046743;28;20029;-69
2023/03/20 05:57:26;;;;;;;12.32;7.07;;;;;;;11.52;69.08;100397.00;5046655;28;20033;-69
2023/03/20 05:59:52;;;;;;;13.32;7.47;;;;;;;11.53;68.54;100399.53;5046647;28;20052;-70
2023/03/20 06:02:17;;;;;;;10.55;7.03;;;;;;;11.64;67.98;100413.88;5047753;28;20048;-69
2023/03/20 06:04:42;;;;;;;12.00;6.40;;;;;;;11.67;68.31;100405.53;5047162;28;20032;-69
2023/03/20 06:07:08;;;;;;;15.48;6.43;;;;;;;11.80;68.30;100409.63;5051109;28;20040;-70
2023/03/20 06:09:33;;;;;;;9.65;6.22;;;;;;;11.81;68.32;100413.16;5049131;28;20040;-71
2023/03/20 06:11:59;;;;;;;9.25;6.43;;;;;;;11.78;68.18;100406.25;5047451;28;20020;-71
2023/03/20 06:14:25;;;;;;;10.15;6.35;;;;;;;11.80;68.05;100420.38;5051980;28;20049;-64
2023/03/20 06:16:52;;;;;;;11.38;6.15;;;;;;;11.79;67.99;100407.94;5030487;28;20044;-63
2023/03/20 06:19:19;;;;;;;9.65;5.85;;;;;;;11.86;68.69;100413.63;5044289;28;20032;-64
2023/03/20 06:21:45;;;;;;;9.90;6.15;;;;;;;11.85;68.48;100410.06;5042411;28;20029;-64
2023/03/20 06:24:10;;;;;;;9.32;5.50;;;;;;;11.93;68.04;100415.56;5052153;28;20111;-65
2023/03/20 06:26:36;;;;;;;9.63;5.93;;;;;;;11.94;68.00;100419.13;5045296;28;20359;-64
2023/03/20 06:29:02;;;;;;;14.43;5.47;;;;;;;12.00;68.57;100418.56;5053669;28;20025;-64
2023/03/20 06:31:27;;;;;;;11.40;5.65;;;;;;;12.11;68.66;100413.03;5044564;28;20106;-65
2023/03/20 06:33:53;;;;;;;12.55;6.22;;;;;;;12.14;68.46;100412.75;5063155;28;20040;-64
2023/03/20 06:36:18;;;;;;;9.23;6.22;;;;;;;12.18;68.28;100416.84;5057847;28;20139;-70
2023/03/20 06:38:44;;;;;;;12.10;6.20;;;;;;;12.19;68.08;100413.19;5048751;28;20040;-70
2023/03/20 06:41:10;;;;;;;11.15;5.85;;;;;;;12.27;68.32;100429.44;5045436;28;20032;-70
2023/03/20 06:43:36;;;;;;;11.18;6.65;;;;;;;12.37;67.45;100425.75;5043987;28;20352;-69
2023/03/20 06:46:01;;;;;;;6.43;5.53;;;;;;;12.45;67.27;100420.50;5041749;28;20036;-70
2023/03/20 06:48:27;;;;;;;9.07;5.65;;;;;;;12.64;65.98;100420.47;5043339;28;20071;-70
2023/03/20 06:50:52;;;;;;;11.88;5.82;;;;;;;12.65;65.84;100419.50;5046356;28;20023;-68
2023/03/20 06:53:18;;;;;;;8.90;5.13;;;;;;;12.73;65.94;100429.50;5048541;28;20479;-62
2023/03/20 06:55:49;;;;;;;11.38;6.13;;;;;;;12.75;65.56;100423.00;5042912;28;20044;-62
2023/03/20 06:58:15;;;;;;;9.85;6.20;;;;;;;12.75;65.41;100422.13;5048263;28;20033;-64
2023/03/20 07:00:41;;;;;;;11.43;6.38;;;;;;;12.84;65.84;100423.97;5044601;28;20057;-64
2023/03/20 07:03:07;;;;;;;8.40;6.05;;;;;;;12.91;64.76;100423.22;5059200;28;20114;-64
2023/03/20 07:05:33;;;;;;;8.90;6.03;;;;;;;13.07;64.48;100428.00;5063082;28;20036;-70
2023/03/20 07:07:59;;;;;;;14.40;6.70;;;;;;;13.20;63.26;100425.84;5058736;28;20036;-71
2023/03/20 07:10:25;;;;;;;12.85;7.22;;;;;;;13.34;62.88;100417.25;5052560;28;20033;-70
2023/03/20 07:12:50;;;;;;;13.95;6.60;;;;;;;13.21;63.65;100423.00;5052025;28;20465;-71
2023/03/20 07:15:17;;;;;;;11.75;7.53;;;;;;;13.43;62.08;100417.22;5061725;28;20044;-70
2023/03/20 07:17:42;;;;;;;10.60;6.70;;;;;;;13.47;62.34;100431.22;5050242;28;20388;-70
2023/03/20 07:20:09;;;;;;;14.75;8.05;;;;;;;13.52;60.89;100426.25;5054347;28;20035;-69
2023/03/20 07:22:35;;;;;;;12.75;8.07;;;;;;;13.54;61.55;100429.59;5043770;28;20443;-69
2023/03/20 07:25:01;;;;;;;11.80;7.53;;;;;;;13.67;60.90;100432.78;5062034;28;20131;-70
2023/03/20 07:27:26;;;;;;;11.43;7.72;;;;;;;13.75;59.79;100432.91;5052677;28;20047;-70
2023/03/20 07:29:52;;;;;;;14.77;8.57;;;;;;;13.83;59.19;100435.66;5057204;28;20028;-70
2023/03/20 07:32:17;;;;;;;15.73;8.32;;;;;;;13.93;58.93;100438.31;5050432;28;20059;-70
2023/03/20 07:34:43;;;;;;;15.88;8.15;;;;;;;13.87;59.31;100428.13;5060144;28;20032;-70
2023/03/20 07:37:09;;;;;;;13.23;8.85;;;;;;;13.88;59.13;100421.72;5060771;28;20036;-70
2023/03/20 07:39:35;;;;;;;14.25;8.43;;;;;;;13.89;59.12;100423.44;5054078;28;20479;-64
2023/03/20 07:42:00;;;;;;;14.70;8.98;;;;;;;13.99;58.83;100425.06;5042368;28;20032;-64
2023/03/20 07:44:26;;;;;;;17.70;10.02;;;;;;;13.99;58.02;100426.91;5054536;28;20029;-65
2023/03/20 07:46:52;;;;;;;15.15;9.57;;;;;;;13.98;58.29;100427.91;5063341;28;20036;-64
2023/03/20 07:49:18;;;;;;;15.07;10.05;;;;;;;14.13;57.85;100431.75;5058538;28;20044;-64
2023/03/20 07:51:44;;;;;;;18.13;11.00;;;;;;;14.01;58.45;100411.41;5046821;28;20138;-64
2023/03/20 07:54:10;;;;;;;17.80;10.68;;;;;;;14.07;57.71;100430.53;5057378;28;20025;-64
2023/03/20 07:56:35;;;;;;;15.93;10.02;;;;;;;14.16;57.51;100424.22;5053344;28;20036;-64
2023/03/20 07:59:00;;;;;;;15.25;9.43;;;;;;;14.21;57.50;100419.19;5054161;28;20024;-65
2023/03/20 08:01:26;;;;;;;14.52;9.40;;;;;;;14.21;57.58;100427.28;5045212;28;20035;-64
2023/03/20 08:03:51;;;;;;;13.02;9.70;;;;;;;14.29;57.83;100431.94;5053773;28;20021;-70
2023/03/20 08:06:17;;;;;;;14.20;10.02;;;;;;;14.23;57.71;100436.13;5058346;28;20577;-70
2023/03/20 08:08:43;;;;;;;15.50;10.57;;;;;;;14.43;57.33;100440.34;5056678;28;20054;-70
2023/03/20 08:11:09;;;;;;;18.77;12.38;;;;;;;14.49;55.21;100438.84;5045541;28;20032;-70
2023/03/20 08:13:35;;;;;;;16.83;12.13;;;;;;;14.48;55.59;100432.59;5050612;28;20045;-70
2023/03/20 08:16:00;;;;;;;17.58;11.40;;;;;;;14.48;55.62;100423.69;5048235;28;20031;-70
2023/03/20 08:18:26;;;;;;;22.13;13.35;;;;;;;14.68;53.93;100434.13;5052309;28;20036;-70
2023/03/20 08:20:51;;;;;;;19.88;14.45;;;;;;;14.70;53.21;100437.50;5059356;28;20028;-70
2023/03/20 08:23:17;;;;;;;23.77;14.77;;;;;;;15.08;51.88;100437.06;5062773;28;20477;-70
2023/03/20 08:25:50;;;;;;;24.00;14.60;;;;;;;15.17;51.28;100444.22;5058127;28;20036;-70
2023/03/20 08:28:16;;;;;;;23.88;14.60;;;;;;;15.32;51.02;100439.06;5061218;28;20036;-63
2023/03/20 08:30:42;;;;;;;22.67;14.32;;;;;;;15.19;51.29;100431.38;5053359;28;20371;-63
2023/03/20 08:33:09;;;;;;;22.05;14.27;;;;;;;15.28;51.06;100432.25;5060018;28;20020;-64
2023/03/20 08:35:34;;;;;;;19.05;14.23;;;;;;;15.27;51.31;100430.56;5056573;28;20041;-65
2023/03/20 08:38:00;;;;;;;26.13;15.00;;;;;;;15.49;50.58;100439.00;5056549;28;20031;-70
2023/03/20 08:40:26;;;;;;;23.98;15.60;;;;;;;15.47;50.86;100446.41;5050158;28;20127;-70
2023/03/20 08:42:52;;;;;;;27.90;16.48;;;;;;;15.39;50.72;100443.69;5059040;28;20103;-70
2023/03/20 08:45:17;;;;;;;24.58;16.52;;;;;;;15.41;50.25;100440.78;5055195;28;20032;-70
2023/03/20 08:47:47;;;;;;;24.38;16.02;;;;;;;15.49;50.09;100446.25;5058001;28;20025;-70
2023/03/20 08:50:12;;;;;;;25.75;16.60;;;;;;;15.71;49.11;100449.19;5055941;28;21109;-70
2023/03/20 08:52:42;;;;;;;21.55;16.13;;;;;;;15.63;49.36;100461.84;5048854;28;20032;-70
2023/03/20 08:55:12;;;;;;;23.85;16.27;;;;;;;15.52;49.60;100464.84;5052651;28;20036;-71
2023/03/20 08:57:38;;;;;;;25.60;17.85;;;;;;;15.63;49.60;100470.81;5059116;28;20036;-70
2023/03/20 09:00:05;;;;;;;26.25;17.35;;;;;;;16.01;48.59;100464.00;5049915;28;20033;-71
2023/03/20 09:02:31;;;;;;;26.65;18.33;;;;;;;16.64;46.96;100453.44;5060925;28;20025;-71
2023/03/20 09:04:57;;;;;;;27.45;17.88;;;;;;;17.57;44.56;100429.16;5047503;28;20116;-71
2023/03/20 09:07:22;;;;;;;24.00;16.42;;;;;;;18.03;43.51;100452.66;5063193;28;20036;-71
2023/03/20 09:09:48;;;;;;;25.35;17.38;;;;;;;18.62;42.35;100454.63;5053659;28;20407;-71
2023/03/20 09:12:13;;;;;;;28.60;19.85;;;;;;;18.89;41.80;100451.31;5056613;28;20031;-70
2023/03/20 09:14:38;;;;;;;28.60;20.15;;;;;;;18.76;41.64;100450.28;5051520;28;20029;-71
2023/03/20 09:17:04;;;;;;;27.88;19.73;;;;;;;18.99;41.20;100451.06;5057539;28;20024;-70
2023/03/20 09:19:30;;;;;;;25.42;17.45;;;;;;;19.29;40.68;100456.38;5048852;28;20106;-71
2023/03/20 09:21:56;;;;;;;23.38;17.05;;;;;;;19.38;40.30;100447.06;5056619;28;20047;-71
2023/03/20 09:24:21;;;;;;;19.15;16.33;;;;;;;19.59;40.01;100449.03;5054593;28;20031;-71
2023/03/20 09:26:47;;;;;;;21.67;16.67;;;;;;;20.19;39.04;100453.16;5056112;28;20055;-71
2023/03/20 09:29:12;;;;;;;21.67;16.40;;;;;;;20.77;38.03;100453.94;5052339;28;20047;-71
2023/03/20 09:31:37;;;;;;;22.63;17.17;;;;;;;22.06;35.37;100439.44;5049175;28;20021;-71
2023/03/20 09:34:03;;;;;;;22.02;16.48;;;;;;;22.36;34.84;100440.75;5052653;28;20567;-71
2023/03/20 09:36:29;;;;;;;20.50;15.55;;;;;;;22.74;34.53;100450.09;5053966;28;20486;-71
2023/03/20 09:38:54;;;;;;;24.15;17.23;;;;;;;22.96;34.12;100437.84;5049239;28;20098;-69
2023/03/20 09:41:22;;;;;;;21.85;17.45;;;;;;;23.00;33.62;100428.19;5050025;28;20035;-69
2023/03/20 09:44:11;;;;;;;20.85;16.88;;;;;;;22.93;33.76;100434.72;5049698;28;20382;-70
2023/03/20 09:46:48;;;;;;;22.92;17.67;;;;;;;22.79;34.10;100442.06;5055779;28;20082;-69
2023/03/20 09:49:16;;;;;;;24.02;16.60;;;;;;;23.11;33.61;100443.97;5050516;28;20031;-69
2023/03/20 09:51:41;;;;;;;25.83;17.73;;;;;;;23.19;33.35;100441.00;5051542;28;20024;-69
2023/03/20 09:54:41;;;;;;;21.15;16.55;;;;;;;23.26;33.13;100447.34;5052210;28;20024;-70
2023/03/20 09:57:18;;;;;;;22.90;16.85;;;;;;;23.35;32.85;100435.13;5051907;28;20021;-69
2023/03/20 09:59:45;;;;;;;19.25;15.57;;;;;;;23.56;32.61;100434.84;5053717;28;20048;-71
2023/03/20 10:02:23;;;;;;;22.30;16.10;;;;;;;23.64;32.78;100444.72;5051615;28;20089;-69
2023/03/20 10:04:51;;;;;;;22.88;17.58;;;;;;;23.68;32.67;100433.13;5055309;28;20061;-69
2023/03/20 10:07:18;;;;;;;20.85;15.88;;;;;;;23.92;32.54;100446.06;5054497;28;20036;-70
2023/03/20 10:09:44;;;;;;;20.05;14.98;;;;;;;24.16;31.79;100431.66;5047888;28;20108;-70
2023/03/20 10:12:22;;;;;;;21.33;16.45;;;;;;;24.20;31.90;100441.13;5059478;28;20484;-69
2023/03/20 10:15:27;;;;;;;22.40;17.08;;;;;;;23.95;32.25;100436.59;5053015;28;20063;-69
2023/03/20 10:18:13;;;;;;;18.20;15.10;;;;;;;23.68;32.65;100435.00;5028826;28;20037;-70
2023/03/20 10:20:53;;;;;;;18.05;15.63;;;;;;;23.51;32.95;100429.16;5050413;28;20099;-70
2023/03/20 10:23:30;;;;;;;19.55;15.70;;;;;;;22.71;34.18;100438.72;5047240;28;20589;-69
2023/03/20 10:26:02;;;;;;;20.60;15.95;;;;;;;22.87;33.85;100430.94;5055249;28;20034;-70
2023/03/20 10:28:39;;;;;;;23.58;16.52;;;;;;;22.82;34.04;100425.25;5051718;28;20077;-70
2023/03/20 10:31:24;;;;;;;18.63;15.63;;;;;;;22.63;34.34;100430.72;5051746;28;20114;-69
2023/03/20 10:34:21;;;;;;;21.98;16.05;;;;;;;22.57;34.33;100426.91;5047805;28;20435;-70
2023/03/20 10:37:04;;;;;;;18.77;15.80;;;;;;;21.95;35.15;100421.72;5054798;28;20426;-69
2023/03/20 10:39:54;;;;;;;19.67;16.65;;;;;;;21.97;35.32;100427.00;5058732;28;20028;-69
2023/03/20 10:42:26;;;;;;;21.98;16.92;;;;;;;21.52;35.90;100413.97;5055306;28;20029;-70
2023/03/20 10:45:03;;;;;;;20.55;16.00;;;;;;;21.39;36.11;100408.44;5052826;28;20052;-70
2023/03/20 10:47:34;;;;;;;21.60;16.15;;;;;;;21.55;35.56;100419.03;5062614;28;20028;-69
2023/03/20 10:50:10;;;;;;;23.88;16.80;;;;;;;21.18;36.31;100419.44;5057356;28;20036;-70
2023/03/20 10:52:40;;;;;;;22.05;16.77;;;;;;;20.88;36.69;100424.22;5065792;28;20090;-70
2023/03/20 10:55:14;;;;;;;20.95;16.60;;;;;;;20.63;37.28;100424.88;5055924;28;20032;-70
2023/03/20 10:57:47;;;;;;;20.60;17.08;;;;;;;20.36;37.91;100410.16;5058016;28;20476;-70
2023/03/20 11:00:24;;;;;;;21.65;16.58;;;;;;;20.28;38.09;100417.63;5054896;28;20378;-70
2023/03/20 11:02:51;;;;;;;27.05;16.77;;;;;;;20.08;38.36;100412.78;5057368;28;20025;-70
2023/03/20 11:05:24;;;;;;;24.23;17.35;;;;;;;20.15;37.75;100412.88;5047850;28;20029;-70
2023/03/20 11:08:00;;;;;;;25.23;17.15;;;;;;;20.16;37.78;100406.41;5042079;28;20442;-70
2023/03/20 11:10:27;;;;;;;28.67;18.00;;;;;;;20.15;38.12;100411.00;5061486;28;20032;-70
2023/03/20 11:12:52;;;;;;;22.98;18.58;;;;;;;19.98;38.52;100403.22;5056741;28;20425;-70
2023/03/20 11:15:26;;;;;;;22.23;16.58;;;;;;;19.77;39.16;100406.75;5057086;28;20021;-70
2023/03/20 11:17:58;;;;;;;25.50;18.23;;;;;;;19.65;38.78;100404.72;5058999;28;20480;-70
2023/03/20 11:20:26;;;;;;;27.52;18.15;;;;;;;19.60;38.83;100401.72;5060229;28;20047;-70
2023/03/20 11:23:00;;;;;;;25.23;18.42;;;;;;;19.63;38.17;100395.91;5054767;28;20406;-70
2023/03/20 11:25:45;;;;;;;23.33;18.30;;;;;;;19.54;38.44;100405.22;5077080;28;20047;-70
2023/03/20 11:28:18;;;;;;;21.70;16.52;;;;;;;19.40;38.13;100395.19;5076543;28;20024;-70